KNMI Weatherbulletins

Here you can find all the KNMI weather forecasts and the perceptions

Bron: KNMI website
Laatste update op 27-02-2021 om 04:40
ZCZC
FBNL50 EHDB 262002
WEERBULLETIN VOOR DE LUCHTVAART
.
GELDIG VOOR: DE DAGLICHTPERIODE VAN ZATERDAG 27 FEBRUARI 2021.
.
SITUATIE: ONDER INVLOED VAN EEN UITLOPER VAN EEN HOGEDRUKGEBIED BOVEN
HET ZUIDEN VAN ENGELAND VOERT EEN NOORD- TOT NOORDOOSTELIJKE STROMING
MARITIEM POLAIRE LUCHT AAN. DE OPBOUW WORDT GEDURENDE DE MIDDAG
TIJDELIJK ONSTABIEL TOT CIRCA 2500 VT.
.
SIGNIFICANT WEER: IN DE OCHTEND OP UITGEBREIDE SCHAAL MIST(BANKEN),
GELEIDELIJK OVERGAAND IN NEVEL EN AAN HET EIND VAN DE OCHTEND
OPLOSSEND.
.
WIND: OP VEEL PLAATSEN VARIABEL 1-3 KN. IN HET NOORDEN WEST, IN HET
ZUIDEN NOORD TOT NOORDOOST, 3-6 KN. MET NAME AAN DE NOORDKUST
GEDURENDE DE MIDDAG ENKELE KNOPEN MEER.
.
BEWOLKING: IN DE OCHTEND GAAT DE MIST OP VEEL PLAATSEN OVER IN BKN ST
BENEDEN 500 VT, VAN HET OOSTEN UIT GELEIDELIJK STIJGEND NAAR SCT/BKN
ST 500-1000 VT, TOPPEN ROND 1000 VT, AAN HET EINDE VAN DE OCHTEND
OPLOSSEND, PLAATSELIJK HARDNEKKIG TOT IN DE EERSTE HELFT VAN DE
MIDDAG. IN DE MIDDAG MET NAME LANDINWAARTS VORMING VAN FEW CU ROND
1500 VT, TOPPEN 2500 VT.
.
ZICHT: OP UITGEBREIDE SCHAAL MINDER DAN 1500 M, LOKAAL 1500-5000 M.
VANAF HET EINDE VAN DE OCHTEND OPLOPEND NAAR MEER DAN 10 KM.
.
NULGRADEN NIVEAU: CIRCA 4000 VT. AANVANKELIJK MET NAME IN HET OOSTEN
ROND 2000 VT, ZEER LOKAAL AAN DE GROND.
.
DAGLICHTPERIODE: 06.15 TOT 17.31 UTC.=
NNNN
Bron: KNMI website
Laatste update op 27-02-2021 om 04:40
ZCZC
FC241300 EHWO AAA WOENSDRECHT/WOENSDRECHT   NLD   19 m.
TAF AMD EHWO 241357Z 2413/2422 CNL=
ZCZC
FC260900 EHGR RRB GILZE-RIJEN/GILZE-RIJEN   NLD   14 m.
TAF EHGR 260956Z 2610/2622 33006KT CAVOK
    TEMPO 2611/2616 33008G18KT
    BECMG 2621/2622 VRB02KT 4000 BR=
ZCZC
FT262300 EHAM     AMSTERDAM/SCHIPHOL   NLD   -3 m.
TAF EHAM 262318Z 2700/2806 VRB03KT 4000 MIFG BR NSC
    BECMG 2700/2702 1400 BCFG
    PROB40 2700/2709 0400 FG OVC000
    BECMG 2709/2712 33007KT CAVOK
    BECMG 2720/2723 VRB03KT 5000 MIFG BR
    PROB40 2723/2806 0400 FG OVC000=
ZCZC
FT262300 EHRD     ROTTERDAM/THE HAGUE AIRPORT   NLD   -5 m.
TAF EHRD 262318Z 2700/2806 VRB03KT 1400 BCFG NSC
    PROB40 2700/2709 0400 FG OVC000
    BECMG 2709/2712 33007KT CAVOK
    BECMG 2719/2721 VRB03KT 5000 MIFG BR
    PROB40 2721/2806 0400 FG OVC000=
ZCZC
FT262300 EHGG     GRONINGEN/EELDE   NLD   5 m.
TAF EHGG 262321Z 2700/2806 30005KT 7000 BKN004
    BECMG 2700/2703 2000 BR BKN002
    PROB40 2701/2709 0200 FG VV000
    BECMG 2710/2713 9999 NSW FEW020
    BECMG 2718/2721 3500 MIFG BR
    BECMG 2721/2724 1200 BCFG
    PROB40 2723/2806 0200 FG VV000=
ZCZC
FT262300 EHBK     MAASTRICHT/MAASTRICHT-AACHEN   NLD   114 m.
TAF EHBK 262321Z 2700/2806 36005KT CAVOK
    BECMG 2701/2704 2000 BR BKN002
    PROB40 2702/2709 0300 FG VV000
    BECMG 2709/2712 7000 NSW BKN012
    BECMG 2712/2715 9999 SCT020
    BECMG 2721/2724 4000 BR MIFG
    BECMG 2800/2803 1200 BCFG
    PROB30 2803/2806 0400 FG VV000=
ZCZC
FT262300 EHEH RRA EINDHOVEN/EINDHOVEN   NLD   22 m.
TAF EHEH 262358Z 2700/2806 VRB02KT 9000 NSC
    BECMG 2700/2702 1500 BR MIFG
    BECMG 2701/2703 0300 FG OVC001
    BECMG 2707/2709 3000 BR SCT002 BKN004
    BECMG 2709/2711 7000 NSW SCT004 BKN008
    BECMG 2711/2713 FEW015 SCT020
    BECMG 2721/2723 2000 BR BCFG
    BECMG 2800/2802 0300 FG OVC001=
ZCZC
FT262300 EHLE AAA LELYSTAD/LELYSTAD   NLD   -3 m.
TAF AMD EHLE 270250Z 2702/2806 VRB03KT 4000 BR BKN004
    PROB30 2703/2709 0600 FG OVC001
    BECMG 2709/2712 33007KT CAVOK
    BECMG 2719/2721 VRB03KT 5000 MIFG BR
    PROB40 2721/2806 0400 FG OVC000=
ZCZC
FC270100 EHVK RRA VOLKEL/VOLKEL   NLD   21 m.
TAF EHVK 270133Z 2702/2714 VRB02KT 3000 BR OVC003
    BECMG 2702/2704 1500
    PROB40 0702/0707 0300 FG OVC001
    BECMG 2707/2709 3000 BR SCT002 BKN004
    BECMG 2709/2711 7000 NSW SCT004 BKN008
    BECMG 2711/2713 FEW015 SCT020=
ZCZC
FC270100 EHKD RRC DE KOOY/DE KOOY   NLD   1 m.
TAF EHKD 270148Z 2702/2714 VRB02KT 0300 FG OVC000
    BECMG 2707/2709 2000 BR SCT002 BKN004
    BECMG 2709/2711 28005KT 6000 NSW SCT006 BKN008
    BECMG 2711/2713 NSC=
ZCZC
FC270100 EHLW RRB LEEUWARDEN/LEEUWARDEN   NLD   1 m.
TAF EHLW 270140Z 2702/2714 VRB02KT 0400 FG OVC000
    BECMG 2707/2709 2000 BR SCT002 BKN004
    BECMG 2709/2711 28005KT 6000 NSW SCT006 BKN008
    BECMG 2711/2713 NSC=
Bron: KNMI website
Laatste update op 27-02-2021 om 04:40
ZCZC
SA270255 EHFS     VLISSINGEN AWS   NLD   8 m.
METAR EHFS 270255Z AUTO 31004KT 4200 BR NCD 04/04 Q1039=
ZCZC
SA270255 EHSG     BSA   NLD   43 m.
METAR EHSG 270255Z AUTO 32003KT //// // NCD 06/04 Q1039 RE//=
ZCZC
SA270325 EHKD     DE KOOY/DE KOOY   NLD   1 m.
METAR EHKD 270325Z AUTO VRB02KT 0550 FG OVC002 01/01 Q1039 RED=
ZCZC
SA270325 EHFD     F3-FB-1   NLD   50 m.
METAR EHFD 270325Z AUTO /////KT 9999 NSC 05/05 Q1037=
ZCZC
SA270325 EHAM     AMSTERDAM/SCHIPHOL   NLD   -3 m.
METAR EHAM 270325Z VRB01KT 0500 R18C/0900N R27/0350N R18R/////
R06/1600N FG SCT000 BKN001 BKN002 02/02 Q1039 NOSIG=
ZCZC
SA270325 EHVL     VLIELAND   NLD   10 m.
METAR EHVL 270325Z AUTO 32004KT 2300 BR NCD 03/03 Q1038 YLO=
ZCZC
SA270325 EHJR     K13-A   NLD   37 m.
METAR EHJR 270325Z AUTO 32011KT //// // ///////// 06/04 Q1039 RE//
W06/H7=
ZCZC
SA270325 EHLE     LELYSTAD/LELYSTAD   NLD   -3 m.
METAR EHLE 270325Z AUTO 33004KT 7000 BKN003 OVC005 04/04 Q1039=
ZCZC
SA270325 EHLW     LEEUWARDEN/LEEUWARDEN   NLD   1 m.
METAR EHLW 270325Z AUTO 24004KT 0250 FG OVC000 00/00 Q1038 RED=
ZCZC
SA270325 EHDL     ARNHEM/DEELEN   NLD   48 m.
METAR EHDL 270325Z AUTO 33004KT 270V030 9999 OVC007 04/03 Q1038 GRN=
ZCZC
SA270325 EHGG     GRONINGEN/EELDE   NLD   5 m.
METAR EHGG 270325Z AUTO 28005KT 240V310 1000 R23/1700N BR BKN001
OVC002 04/04 Q1038=
ZCZC
SA270325 EHSC     LICHTEILAND GOEREE   NLD   22 m.
METAR EHSC 270325Z AUTO 33006KT 9999 ///////// 06/05 Q1039 W05/H4=
ZCZC
SA270325 EHSA     EURO PLATFORM   NLD   19 m.
METAR EHSA 270325Z AUTO 32004KT 9000 ///////// 06/05 Q1039 W04/H5=
ZCZC
SA270325 EHWO     WOENSDRECHT/WOENSDRECHT   NLD   19 m.
METAR EHWO 270325Z AUTO 00000KT 0250 FZFG VV000 M02/M02 Q1039 RED=
ZCZC
SA270325 EHRD     ROTTERDAM/THE HAGUE AIRPORT   NLD   -5 m.
METAR EHRD 270325Z AUTO 16002KT 0200 R24/0275N FG VV000 01/01 Q1039
NOSIG=
ZCZC
SA270325 EHGR     GILZE-RIJEN/GILZE-RIJEN   NLD   14 m.
METAR EHGR 270325Z AUTO 00000KT 0450 FZFG VV000 M00/M01 Q1039 RED=
ZCZC
SA270325 EHEH     EINDHOVEN/EINDHOVEN   NLD   22 m.
METAR EHEH 270325Z AUTO 35004KT 310V020 0450 FG OVC000 03/03 Q1039 RED=
ZCZC
SA270325 EHVK     VOLKEL/VOLKEL   NLD   21 m.
METAR EHVK 270325Z AUTO 02004KT 340V050 6000 BR OVC004 04/03 Q1039 YLO=
ZCZC
SA270325 EHBK     MAASTRICHT/MAASTRICHT-AACHEN   NLD   114 m.
METAR EHBK 270325Z AUTO 34003KT 320V020 3700 BR OVC003 03/02 Q1038=
ZCZC
SA270325 EHFZ     F16-A   NLD   43 m.
METAR EHFZ 270325Z NIL=
ZCZC
SA270325 EHKV     K14-FA-1C   NLD   41 m.
METAR EHKV 270325Z AUTO VRB08KT 8000 NCD 06/05 Q1039=
ZCZC
SA270325 EHMG     L9-FF-1   NLD   44 m.
METAR EHMG 270325Z AUTO 33012KT 9999 NCD 05/04 Q1039=
ZCZC
SA270325 EHMA     AWG-1   NLD   40 m.
METAR EHMA 270325Z AUTO 32017KT 9999 NCD 05/04 Q1038=
ZCZC
SA270325 EHDV     D15-FA-1   NLD   42 m.
METAR EHDV 270325Z AUTO 27013KT 9999 NCD 06/04 Q1038=
ZCZC
SA270325 EHAK     A12-CPP   NLD   48 m.
METAR EHAK 270325Z AUTO 30012KT 9999 NCD 05/04 Q1037=
ZCZC
SA270325 EHQE     HOORN-A   NLD   50 m.
METAR EHQE 270325Z AUTO 28009KT 9999 NCD 06/04 Q1039=
ZCZC
SA270325 EHJA     J6-A   NLD   45 m.
METAR EHJA 270325Z AUTO 29010KT 9999 NSC 06/04 Q1038=
ZCZC
SA270325 EHPG     P11-B   NLD   41 m.
METAR EHPG 270325Z AUTO 32004KT 9999 NCD 07/05 Q1039=
ZCZC
SA270325 EHHW     BUITENGAATS/BG-OHVS2      42 m.
METAR EHHW 270325Z AUTO 33008KT 9999 SCT001/// 05/04 Q1037=